Time;durP1;ratioP1;P1;durP2;ratioP2;P2;SDS_P1;SDS_P2;PMS_P1;PMS_P2;Temp;Humidity;BMP_temperature;BMP_pressure;BME280_temperature;BME280_humidity;BME280_pressure;Samples;Min_cycle;Max_cycle;Signal;HPM_P1;HPM_P2
2023/05/18 00:01:29;;;;;;;3.00;1.10;;;;;;;7.68;81.79;102565.63;6222814;28;20078;-69
2023/05/18 00:04:32;;;;;;;3.63;1.02;;;;;;;7.66;81.13;102558.66;6219619;28;20080;-69
2023/05/18 00:07:34;;;;;;;6.00;0.98;;;;;;;7.61;82.20;102558.72;6224369;28;20058;-69
2023/05/18 00:10:35;;;;;;;2.70;1.20;;;;;;;7.64;82.60;102563.94;6224186;28;20366;-69
2023/05/18 00:13:37;;;;;;;6.47;1.40;;;;;;;7.57;81.92;102557.88;6220204;28;20054;-69
2023/05/18 00:16:39;;;;;;;4.45;1.13;;;;;;;7.52;82.78;102559.69;6217476;28;20053;-69
2023/05/18 00:19:41;;;;;;;5.72;1.70;;;;;;;7.51;83.56;102564.97;6229123;28;20049;-69
2023/05/18 00:22:43;;;;;;;2.88;1.48;;;;;;;7.56;83.87;102557.91;6230233;28;20053;-69
2023/05/18 00:25:44;;;;;;;7.07;1.35;;;;;;;7.40;83.78;102558.97;6230218;28;20045;-69
2023/05/18 00:28:45;;;;;;;7.10;1.73;;;;;;;7.37;84.51;102563.34;6230167;28;20104;-70
2023/05/18 00:31:48;;;;;;;2.97;1.48;;;;;;;7.35;85.08;102559.88;6229961;28;20060;-69
2023/05/18 00:34:49;;;;;;;5.28;1.77;;;;;;;7.33;84.81;102564.28;6230208;28;20046;-69
2023/05/18 00:37:51;;;;;;;6.25;1.50;;;;;;;7.31;85.30;102563.44;6230061;28;20046;-69
2023/05/18 00:40:52;;;;;;;7.40;1.88;;;;;;;7.28;84.89;102567.81;6229995;28;20049;-69
2023/05/18 00:43:54;;;;;;;4.13;1.40;;;;;;;7.15;85.91;102558.38;6229989;28;20087;-69
2023/05/18 00:46:58;;;;;;;4.40;1.33;;;;;;;7.08;86.75;102560.16;6230016;28;20438;-70
2023/05/18 00:50:00;;;;;;;6.78;1.83;;;;;;;7.10;86.85;102564.50;6229675;28;20046;-69
2023/05/18 00:53:01;;;;;;;7.60;2.03;;;;;;;7.01;86.90;102561.13;6229643;28;20046;-69
2023/05/18 00:56:03;;;;;;;2.38;1.30;;;;;;;6.92;87.13;102571.66;6224597;28;20379;-69
2023/05/18 00:59:04;;;;;;;1.70;1.17;;;;;;;6.93;88.37;102568.16;6227223;28;20054;-69
2023/05/18 01:02:08;;;;;;;3.13;1.15;;;;;;;6.81;89.20;102562.16;6229656;28;20046;-69
2023/05/18 01:05:11;;;;;;;4.78;1.10;;;;;;;6.80;89.38;102572.63;6229412;28;20132;-69
2023/05/18 01:08:12;;;;;;;8.27;1.55;;;;;;;6.83;90.32;102572.59;6229243;28;20401;-69
2023/05/18 01:11:23;;;;;;;2.67;1.13;;;;;;;6.79;89.64;102565.66;6229122;28;20053;-69
2023/05/18 01:14:32;;;;;;;4.05;1.15;;;;;;;6.78;89.86;102567.41;6229289;28;20049;-69
2023/05/18 01:17:40;;;;;;;2.72;0.85;;;;;;;6.67;90.15;102568.38;6229181;28;20462;-69
2023/05/18 01:20:47;;;;;;;7.38;1.05;;;;;;;6.66;90.33;102570.13;6229055;28;20054;-69
2023/05/18 01:24:04;;;;;;;5.00;1.20;;;;;;;6.61;91.40;102575.38;6228750;28;20050;-69
2023/05/18 01:27:07;;;;;;;1.73;0.98;;;;;;;6.57;91.29;102572.78;6228846;28;20132;-69
2023/05/18 01:30:10;;;;;;;4.38;0.80;;;;;;;6.57;91.45;102576.28;6228433;28;20046;-69
2023/05/18 01:33:12;;;;;;;2.45;1.05;;;;;;;6.55;91.10;102577.19;6228973;28;20057;-69
2023/05/18 01:36:14;;;;;;;7.50;1.20;;;;;;;6.41;92.52;102582.50;6228815;28;20050;-70
2023/05/18 01:39:16;;;;;;;3.05;1.27;;;;;;;6.40;92.59;102580.72;6220524;28;20137;-69
2023/05/18 01:42:25;;;;;;;2.83;1.55;;;;;;;6.31;94.25;102581.69;6228721;28;20053;-69
2023/05/18 01:45:28;;;;;;;;;;;;;;;6.32;93.58;102577.34;6229214;28;20057;-69
2023/05/18 01:48:34;;;;;;;5.40;1.63;;;;;;;6.30;94.26;102579.94;6228216;28;19930;-69
2023/05/18 01:51:41;;;;;;;7.88;1.50;;;;;;;6.35;93.88;102582.50;6228593;28;20046;-69
2023/05/18 01:54:45;;;;;;;2.95;0.95;;;;;;;6.28;94.43;102588.66;6228019;28;20374;-69
2023/05/18 01:57:49;;;;;;;3.90;0.98;;;;;;;6.19;93.13;102586.09;6228212;28;20054;-69
2023/05/18 02:00:51;;;;;;;2.22;1.00;;;;;;;6.04;94.51;102587.03;6227974;28;20045;-69
2023/05/18 02:03:53;;;;;;;4.88;1.23;;;;;;;6.08;95.58;102587.00;6228401;28;20041;-69
2023/05/18 02:06:54;;;;;;;2.38;1.30;;;;;;;6.13;95.27;102583.50;6228158;28;20060;-70
2023/05/18 02:09:55;;;;;;;11.38;1.20;;;;;;;6.09;94.46;102578.31;6226016;28;20072;-69
2023/05/18 02:12:58;;;;;;;2.60;1.15;;;;;;;6.10;95.14;102580.06;6226719;28;20046;-69
2023/05/18 02:15:59;;;;;;;5.28;1.00;;;;;;;6.07;94.61;102576.59;6227846;28;20358;-69
2023/05/18 02:19:02;;;;;;;4.18;1.40;;;;;;;6.01;94.89;102574.88;6224443;28;20056;-69
2023/05/18 02:22:04;;;;;;;1.85;0.95;;;;;;;5.97;95.43;102575.78;6225838;28;20343;-69
2023/05/18 02:25:06;;;;;;;9.30;1.30;;;;;;;5.99;95.86;102575.75;6227683;28;20054;-69
2023/05/18 02:28:09;;;;;;;3.63;1.05;;;;;;;5.90;95.31;102584.44;6227314;28;20049;-69
2023/05/18 02:31:11;;;;;;;3.00;0.90;;;;;;;5.89;96.17;102582.72;6227533;28;20050;-69
2023/05/18 02:34:14;;;;;;;5.30;1.70;;;;;;;5.79;95.80;102578.44;6227309;28;20042;-69
2023/05/18 02:37:15;;;;;;;4.88;1.20;;;;;;;5.78;96.47;102587.13;6227401;28;20052;-69
2023/05/18 02:40:17;;;;;;;3.85;1.55;;;;;;;5.72;95.36;102579.31;6226360;28;20195;-69
2023/05/18 02:43:20;;;;;;;3.90;1.15;;;;;;;5.71;96.65;102577.59;6227435;28;20046;-69
2023/05/18 02:46:21;;;;;;;6.55;1.42;;;;;;;5.74;96.26;102582.81;6227104;28;20359;-69
2023/05/18 02:49:23;;;;;;;3.83;1.33;;;;;;;5.66;95.62;102580.22;6226602;28;20053;-69
2023/05/18 02:52:24;;;;;;;4.55;1.08;;;;;;;5.54;97.01;102588.97;6227109;28;20049;-69
2023/05/18 02:55:27;;;;;;;4.05;0.90;;;;;;;5.51;97.57;102590.69;6227139;28;20050;-69
2023/05/18 02:58:30;;;;;;;3.63;1.35;;;;;;;5.50;98.09;102591.59;6226746;28;20046;-69
2023/05/18 03:01:33;;;;;;;7.47;1.42;;;;;;;5.45;98.25;102593.31;6218265;28;20489;-69
2023/05/18 03:04:36;;;;;;;7.43;1.38;;;;;;;5.34;98.13;102594.19;6226849;28;20054;-69
2023/05/18 03:07:38;;;;;;;3.38;1.00;;;;;;;5.41;98.80;102592.47;6224467;28;20049;-69
2023/05/18 03:10:39;;;;;;;2.50;0.68;;;;;;;5.48;98.22;102595.91;6209787;28;20037;-69
2023/05/18 03:13:42;;;;;;;6.25;1.38;;;;;;;5.42;98.23;102593.31;6205205;28;20037;-69
2023/05/18 03:16:43;;;;;;;3.50;1.25;;;;;;;5.46;97.90;102589.84;6205507;28;20053;-69
2023/05/18 03:19:45;;;;;;;7.40;1.13;;;;;;;5.32;97.11;102589.88;6208000;28;20061;-69
2023/05/18 03:22:46;;;;;;;3.08;1.33;;;;;;;5.31;98.80;102593.31;6205811;28;20045;-69
2023/05/18 03:25:53;;;;;;;3.00;1.27;;;;;;;5.26;97.45;102595.94;6205044;28;20053;-69
2023/05/18 03:28:56;;;;;;;2.70;0.93;;;;;;;5.22;97.75;102593.34;6207624;28;20054;-69
2023/05/18 03:31:58;;;;;;;10.43;1.10;;;;;;;5.19;97.54;102596.84;6206028;28;20053;-69
2023/05/18 03:35:00;;;;;;;2.60;1.45;;;;;;;5.21;97.95;102595.09;6205646;28;20038;-69
2023/05/18 03:38:02;;;;;;;4.15;1.70;;;;;;;5.29;98.05;102597.69;6204823;28;20099;-69
2023/05/18 03:41:03;;;;;;;4.43;1.17;;;;;;;5.34;98.42;102603.75;6204761;28;20184;-69
2023/05/18 03:44:06;;;;;;;6.22;1.85;;;;;;;5.32;98.83;102603.78;6205208;28;20042;-69
2023/05/18 03:47:07;;;;;;;6.55;1.15;;;;;;;5.35;98.51;102606.34;6206785;28;20050;-69
2023/05/18 03:50:10;;;;;;;5.43;1.33;;;;;;;5.42;99.26;102602.03;6202939;28;20084;-69
2023/05/18 03:53:12;;;;;;;3.75;1.38;;;;;;;5.45;100.00;102603.72;6205328;28;20608;-69
2023/05/18 03:56:13;;;;;;;3.42;1.55;;;;;;;5.50;100.00;102604.63;6203498;28;20053;-69
2023/05/18 03:59:16;;;;;;;9.35;1.67;;;;;;;5.59;100.00;102610.66;6204398;28;20057;-69
2023/05/18 04:02:17;;;;;;;8.13;1.58;;;;;;;5.63;100.00;102610.63;6213251;28;20049;-69
2023/05/18 04:05:19;;;;;;;1.77;1.00;;;;;;;5.73;100.00;102618.47;6218128;28;20053;-69
2023/05/18 04:08:24;;;;;;;3.80;1.20;;;;;;;5.72;100.00;102613.22;6210241;28;20153;-69
2023/05/18 04:11:25;;;;;;;7.32;1.40;;;;;;;5.82;100.00;102622.78;6225156;28;20056;-69
2023/05/18 04:14:31;;;;;;;4.50;1.30;;;;;;;5.87;100.00;102613.19;6225263;28;20046;-69
2023/05/18 04:17:34;;;;;;;2.92;1.20;;;;;;;5.77;100.00;102622.78;6225363;28;20053;-69
2023/05/18 04:20:36;;;;;;;5.68;1.35;;;;;;;5.88;100.00;102627.09;6224646;28;20374;-69
2023/05/18 04:23:39;;;;;;;2.83;1.35;;;;;;;5.99;100.00;102627.94;6225113;28;20042;-69
2023/05/18 04:26:41;;;;;;;8.35;1.65;;;;;;;6.14;100.00;102630.50;6224810;28;20340;-69
2023/05/18 04:29:46;;;;;;;2.35;1.27;;;;;;;6.23;100.00;102621.78;6224659;28;20439;-69
2023/05/18 04:32:47;;;;;;;2.67;1.00;;;;;;;6.28;100.00;102620.84;6222653;28;20042;-69
2023/05/18 04:35:48;;;;;;;5.13;1.42;;;;;;;6.35;100.00;102622.53;6224932;28;20125;-69
2023/05/18 04:38:50;;;;;;;2.25;1.50;;;;;;;6.40;100.00;102621.66;6224568;28;20046;-69
2023/05/18 04:41:56;;;;;;;5.20;1.60;;;;;;;6.44;100.00;102625.97;6225049;28;20123;-69
2023/05/18 04:44:59;;;;;;;5.05;1.85;;;;;;;6.50;100.00;102632.06;6224788;28;20042;-69
2023/05/18 04:48:01;;;;;;;2.05;0.93;;;;;;;6.66;100.00;102630.19;6224905;28;20050;-69
2023/05/18 04:51:03;;;;;;;4.63;1.05;;;;;;;6.74;100.00;102633.63;6224610;28;20465;-69
2023/05/18 04:54:07;;;;;;;1.35;0.98;;;;;;;6.79;100.00;102631.84;6224400;28;20377;-69
2023/05/18 04:57:09;;;;;;;5.28;1.83;;;;;;;6.84;100.00;102635.28;6223640;28;20050;-69
2023/05/18 05:00:13;;;;;;;4.18;0.85;;;;;;;6.91;100.00;102637.88;6221981;28;20439;-69
2023/05/18 05:03:14;;;;;;;2.83;1.63;;;;;;;6.84;98.29;102640.53;6220467;28;20042;-69
2023/05/18 05:06:16;;;;;;;2.65;0.90;;;;;;;6.92;97.83;102640.47;6229298;28;20053;-69
2023/05/18 05:09:17;;;;;;;4.20;1.30;;;;;;;6.91;97.29;102636.13;6229051;28;20049;-69
2023/05/18 05:12:18;;;;;;;4.60;1.38;;;;;;;6.87;97.78;102644.88;6226266;28;20046;-69
2023/05/18 05:15:21;;;;;;;3.65;1.23;;;;;;;6.98;98.47;102644.78;6229307;28;20049;-69
2023/05/18 05:18:23;;;;;;;10.95;1.80;;;;;;;7.00;97.24;102641.28;6228882;28;20050;-69
2023/05/18 05:21:25;;;;;;;8.57;1.35;;;;;;;7.08;97.85;102649.91;6228736;28;20079;-69
2023/05/18 05:24:26;;;;;;;3.53;1.70;;;;;;;7.16;96.61;102652.47;6229033;28;20046;-69
2023/05/18 05:27:27;;;;;;;6.03;2.30;;;;;;;7.18;95.45;102655.09;6228730;28;20050;-69
2023/05/18 05:30:32;;;;;;;4.25;1.00;;;;;;;7.14;95.35;102656.84;6228825;28;20057;-69
2023/05/18 05:33:33;;;;;;;4.10;1.42;;;;;;;7.23;96.08;102656.78;6228737;28;20053;-69
2023/05/18 05:36:34;;;;;;;2.92;1.10;;;;;;;7.24;94.42;102666.34;6228847;28;20435;-69
2023/05/18 05:39:36;;;;;;;3.33;1.20;;;;;;;7.26;95.33;102661.09;6228277;28;20443;-70
2023/05/18 05:42:37;;;;;;;6.20;1.25;;;;;;;7.28;94.63;102660.22;6228424;28;20049;-69
2023/05/18 05:45:41;;;;;;;3.45;1.60;;;;;;;7.43;95.67;102663.56;6227757;28;20473;-69
2023/05/18 05:48:43;;;;;;;12.85;1.40;;;;;;;7.34;94.71;102661.91;6227877;28;20060;-69
2023/05/18 05:51:44;;;;;;;3.92;0.93;;;;;;;7.45;93.03;102667.03;6228015;28;20049;-69
2023/05/18 05:54:45;;;;;;;1.13;0.82;;;;;;;7.45;93.21;102669.63;6224663;28;20209;-69
2023/05/18 05:57:47;;;;;;;3.85;1.23;;;;;;;7.47;91.27;102666.13;6226269;28;20057;-69
2023/05/18 06:00:49;;;;;;;3.50;1.60;;;;;;;7.63;93.24;102666.88;6228345;28;20056;-69
2023/05/18 06:03:51;;;;;;;1.98;0.93;;;;;;;7.68;93.31;102675.53;6228232;28;20586;-69
2023/05/18 06:06:52;;;;;;;5.68;1.40;;;;;;;7.75;92.86;102671.97;6227998;28;20049;-69
2023/05/18 06:09:54;;;;;;;3.35;1.35;;;;;;;7.85;92.89;102667.47;6227662;28;20188;-69
2023/05/18 06:12:55;;;;;;;3.35;1.33;;;;;;;7.77;88.79;102666.72;6227827;28;20162;-69
2023/05/18 06:15:58;;;;;;;4.85;1.50;;;;;;;7.87;89.36;102663.97;6227022;28;20046;-69
2023/05/18 06:19:00;;;;;;;1.80;1.17;;;;;;;7.92;87.90;102673.53;6227068;28;20057;-69
2023/05/18 06:22:01;;;;;;;2.55;1.20;;;;;;;8.01;88.37;102668.19;6227581;28;20050;-69
2023/05/18 06:25:03;;;;;;;5.50;1.52;;;;;;;8.01;87.09;102670.81;6227277;28;20042;-69
2023/05/18 06:28:04;;;;;;;8.98;1.30;;;;;;;8.04;87.32;102674.25;6227128;28;20046;-69
2023/05/18 06:31:07;;;;;;;5.95;1.00;;;;;;;8.20;89.06;102676.69;6227041;28;20054;-69
2023/05/18 06:34:09;;;;;;;1.92;1.40;;;;;;;8.22;86.43;102675.78;6226900;28;20048;-69
2023/05/18 06:37:10;;;;;;;3.22;0.90;;;;;;;8.25;82.85;102677.50;6226649;28;20041;-69
2023/05/18 06:40:12;;;;;;;2.33;0.90;;;;;;;8.30;81.16;102679.16;6226598;28;20046;-69
2023/05/18 06:43:13;;;;;;;4.65;0.70;;;;;;;8.43;83.02;102684.28;6226883;28;20045;-69
2023/05/18 06:46:25;;;;;;;7.82;0.80;;;;;;;8.52;80.67;102685.03;6226714;28;20049;-69
2023/05/18 06:49:27;;;;;;;5.65;0.98;;;;;;;8.46;75.00;102682.50;6225639;28;20125;-70
2023/05/18 06:52:28;;;;;;;1.33;0.80;;;;;;;8.49;75.76;102694.66;6227002;28;20439;-70
2023/05/18 06:55:29;;;;;;;3.33;0.95;;;;;;;8.52;76.93;102681.53;6227168;28;20061;-70
2023/05/18 06:58:31;;;;;;;4.07;0.93;;;;;;;8.49;73.46;102687.69;6226649;28;20061;-69
2023/05/18 07:01:33;;;;;;;5.03;1.20;;;;;;;8.59;73.52;102698.94;6226873;28;20053;-69
2023/05/18 07:04:35;;;;;;;2.83;1.02;;;;;;;8.60;74.76;102692.78;6226689;28;20053;-69
2023/05/18 07:07:36;;;;;;;5.05;1.13;;;;;;;8.62;76.20;102696.25;6226840;28;20053;-69
2023/05/18 07:10:38;;;;;;;6.60;1.15;;;;;;;8.68;74.11;102698.78;6226516;28;20133;-69
2023/05/18 07:13:39;;;;;;;2.35;0.95;;;;;;;8.63;72.55;102693.63;6225430;28;20046;-69
2023/05/18 07:16:45;;;;;;;2.97;0.80;;;;;;;8.58;72.60;102698.06;6221228;28;20461;-69
2023/05/18 07:19:47;;;;;;;15.27;1.25;;;;;;;8.50;72.48;102699.91;6226164;28;20053;-69
2023/05/18 07:22:49;;;;;;;4.00;1.45;;;;;;;8.59;73.77;102696.31;6226458;28;20076;-69
2023/05/18 07:25:51;;;;;;;2.03;0.80;;;;;;;8.67;72.21;102697.03;6225986;28;20434;-69
2023/05/18 07:28:52;;;;;;;1.65;0.90;;;;;;;8.69;71.55;102692.66;6225714;28;20435;-69
2023/05/18 07:31:55;;;;;;;4.88;0.90;;;;;;;8.58;70.86;102686.69;6226211;28;20362;-69
2023/05/18 07:34:56;;;;;;;2.63;1.02;;;;;;;8.62;71.87;102696.25;6221536;28;20054;-69
2023/05/18 07:37:57;;;;;;;2.03;0.90;;;;;;;8.68;72.74;102696.19;6226087;28;20060;-69
2023/05/18 07:40:59;;;;;;;5.97;1.17;;;;;;;8.68;70.71;102696.19;6226161;28;20054;-69
2023/05/18 07:44:00;;;;;;;4.03;1.08;;;;;;;8.73;69.21;102696.13;6226055;28;20041;-69
2023/05/18 07:47:03;;;;;;;3.63;1.02;;;;;;;8.73;69.97;102706.59;6225831;28;20046;-70
2023/05/18 07:50:06;;;;;;;4.53;1.17;;;;;;;8.73;71.51;102699.59;6225901;28;20057;-69
2023/05/18 07:53:07;;;;;;;3.20;0.73;;;;;;;8.81;72.62;102702.09;6225521;28;20050;-69
2023/05/18 07:56:08;;;;;;;4.57;1.35;;;;;;;8.82;70.62;102702.09;6225985;28;20049;-69
2023/05/18 07:59:10;;;;;;;4.40;0.82;;;;;;;8.81;70.12;102708.22;6225234;28;20050;-69
2023/05/18 08:02:15;;;;;;;3.85;0.90;;;;;;;8.87;72.54;102708.13;6225952;28;20050;-69
2023/05/18 08:05:17;;;;;;;2.97;0.75;;;;;;;9.01;73.40;102702.66;6225765;28;20056;-69
2023/05/18 08:08:19;;;;;;;3.88;1.27;;;;;;;9.17;71.67;102695.41;6225629;28;20050;-69
2023/05/18 08:11:20;;;;;;;8.70;1.08;;;;;;;9.33;73.48;102702.16;6224507;28;20053;-69
2023/05/18 08:14:22;;;;;;;4.30;1.20;;;;;;;9.28;70.23;102695.25;6225542;28;20399;-69
2023/05/18 08:17:24;;;;;;;4.60;1.10;;;;;;;9.27;69.91;102697.00;6225125;28;20167;-69
2023/05/18 08:20:28;;;;;;;2.25;1.13;;;;;;;9.34;67.86;102705.63;6225102;28;20580;-69
2023/05/18 08:23:30;;;;;;;4.68;1.05;;;;;;;9.34;69.23;102708.25;6225654;28;20438;-69
2023/05/18 08:26:31;;;;;;;5.00;1.35;;;;;;;9.33;67.08;102701.28;6225369;28;20089;-69
2023/05/18 08:29:33;;;;;;;1.40;1.08;;;;;;;9.43;68.46;102704.63;6225392;28;20050;-69
2023/05/18 08:32:35;;;;;;;7.25;1.13;;;;;;;9.39;67.12;102696.78;6225502;28;20053;-69
2023/05/18 08:35:38;;;;;;;3.10;1.17;;;;;;;9.17;66.13;102694.53;6224429;28;20364;-69
2023/05/18 08:38:41;;;;;;;2.72;1.05;;;;;;;9.25;66.70;102698.78;6237063;28;20075;-70
2023/05/18 08:41:50;;;;;;;3.65;1.67;;;;;;;9.07;65.12;102694.69;6254547;28;20346;-69
2023/05/18 08:45:02;;;;;;;3.15;1.10;;;;;;;9.14;68.60;102685.84;6254461;28;20041;-69
2023/05/18 08:48:05;;;;;;;3.05;1.20;;;;;;;9.36;68.13;102693.38;6254608;28;20053;-70
2023/05/18 08:51:09;;;;;;;10.73;4.05;;;;;;;9.32;66.80;102686.44;6254352;28;20046;-69
2023/05/18 08:54:11;;;;;;;3.47;1.00;;;;;;;9.39;66.73;102680.19;6254287;28;20657;-69
2023/05/18 08:57:14;;;;;;;5.15;1.08;;;;;;;9.50;66.02;102677.38;6254214;28;20053;-70
2023/05/18 09:00:16;;;;;;;6.10;1.70;;;;;;;9.57;66.66;102679.84;6249559;28;20041;-69
2023/05/18 09:03:19;;;;;;;6.28;1.80;;;;;;;9.66;68.86;102681.44;6246883;28;20050;-70
2023/05/18 09:06:23;;;;;;;3.20;0.82;;;;;;;9.73;67.19;102674.34;6253864;28;20508;-70
2023/05/18 09:09:25;;;;;;;3.00;1.10;;;;;;;9.82;67.96;102675.03;6253203;28;20053;-70
2023/05/18 09:12:28;;;;;;;3.63;0.85;;;;;;;9.95;67.64;102667.78;6253789;28;20049;-70
2023/05/18 09:15:29;;;;;;;4.22;1.55;;;;;;;9.99;66.79;102668.56;6253837;28;20068;-70
2023/05/18 09:18:32;;;;;;;3.92;1.30;;;;;;;10.12;66.65;102668.28;6253291;28;20058;-70
2023/05/18 09:21:33;;;;;;;0.98;0.93;;;;;;;10.17;67.02;102665.56;6253873;28;20045;-70
2023/05/18 09:24:36;;;;;;;2.50;0.80;;;;;;;10.21;63.91;102664.59;6253613;28;20052;-70
2023/05/18 09:27:38;;;;;;;2.75;0.75;;;;;;;10.06;64.05;102657.91;6253642;28;20046;-71
2023/05/18 09:30:41;;;;;;;3.50;1.33;;;;;;;9.87;65.05;102660.03;6253351;28;20053;-71
2023/05/18 09:33:44;;;;;;;2.63;0.88;;;;;;;10.00;65.40;102657.19;6252942;28;20050;-71
2023/05/18 09:36:48;;;;;;;8.23;1.40;;;;;;;10.19;67.69;102658.53;6252741;28;20049;-70
2023/05/18 09:39:58;;;;;;;3.72;0.95;;;;;;;10.08;62.99;102648.25;6250171;28;20083;-71
2023/05/18 09:43:06;;;;;;;5.10;0.95;;;;;;;10.23;65.20;102654.06;6248936;28;20057;-70
2023/05/18 09:46:09;;;;;;;3.03;1.20;;;;;;;10.28;63.21;102654.88;6240418;28;20054;-70
2023/05/18 09:49:12;;;;;;;2.30;0.90;;;;;;;10.34;63.33;102655.59;6246696;28;20430;-70
2023/05/18 09:52:13;;;;;;;1.80;0.90;;;;;;;10.30;64.49;102656.56;6250896;28;20183;-70
2023/05/18 09:55:16;;;;;;;6.70;1.35;;;;;;;10.37;65.90;102658.16;6252663;28;20434;-70
2023/05/18 09:58:17;;;;;;;7.68;2.60;;;;;;;10.39;65.38;102645.84;6252179;28;20057;-70
2023/05/18 10:01:19;;;;;;;6.60;1.10;;;;;;;10.34;65.22;102646.84;6247328;28;20054;-70
2023/05/18 10:04:22;;;;;;;2.88;1.13;;;;;;;10.28;63.82;102644.38;6252567;28;20049;-69
2023/05/18 10:07:23;;;;;;;3.03;1.30;;;;;;;10.35;64.56;102638.06;6252675;28;20051;-70
2023/05/18 10:10:26;;;;;;;2.20;0.90;;;;;;;10.59;67.80;102631.41;6252197;28;20053;-70
2023/05/18 10:13:30;;;;;;;2.60;1.20;;;;;;;11.00;64.51;102638.31;6252383;28;20057;-70
2023/05/18 10:16:32;;;;;;;4.07;1.30;;;;;;;11.13;63.00;102642.34;6252358;28;20049;-71
2023/05/18 10:19:35;;;;;;;2.95;1.17;;;;;;;11.29;62.24;102641.97;6256853;28;20046;-72
2023/05/18 10:22:37;;;;;;;2.10;0.80;;;;;;;11.22;64.95;102641.25;6252179;28;20049;-70
2023/05/18 10:25:42;;;;;;;2.97;1.00;;;;;;;11.21;62.94;102628.97;6252078;28;20048;-70
2023/05/18 10:28:46;;;;;;;8.07;2.20;;;;;;;11.21;62.61;102636.88;6251674;28;20146;-70
2023/05/18 10:31:48;;;;;;;4.40;1.48;;;;;;;11.33;63.14;102636.56;6252005;28;20440;-70
2023/05/18 10:34:52;;;;;;;5.60;1.20;;;;;;;11.37;62.33;102627.69;6251044;28;20159;-71
2023/05/18 10:37:56;;;;;;;2.35;0.95;;;;;;;11.41;62.73;102631.97;6250631;28;20057;-70
2023/05/18 10:40:59;;;;;;;3.92;1.00;;;;;;;11.58;64.04;102628.91;6251760;28;20132;-70
2023/05/18 10:44:02;;;;;;;5.40;1.20;;;;;;;11.50;61.62;102622.09;6251585;28;20132;-70
2023/05/18 10:47:05;;;;;;;3.92;1.20;;;;;;;11.46;60.58;102626.59;6251786;28;20053;-70
2023/05/18 10:50:09;;;;;;;8.15;1.60;;;;;;;11.47;62.27;102616.91;6251251;28;20053;-70
2023/05/18 10:53:12;;;;;;;4.38;1.30;;;;;;;11.50;64.38;102620.34;6247961;28;20050;-70
2023/05/18 10:56:15;;;;;;;2.65;1.13;;;;;;;11.87;64.26;102617.56;6251213;28;20045;-70
2023/05/18 10:59:18;;;;;;;2.72;1.10;;;;;;;11.92;61.76;102625.34;6251021;28;20053;-70
2023/05/18 11:02:21;;;;;;;4.10;1.35;;;;;;;12.05;60.93;102621.44;6250747;28;20053;-70
2023/05/18 11:05:26;;;;;;;4.63;1.00;;;;;;;12.15;60.72;102614.13;6251068;28;20182;-71
2023/05/18 11:08:28;;;;;;;2.97;1.17;;;;;;;12.25;58.68;102623.47;6250756;28;20358;-70
2023/05/18 11:11:30;;;;;;;2.45;1.02;;;;;;;12.25;57.56;102623.47;6251496;28;20442;-71
2023/05/18 11:14:32;;;;;;;8.50;1.48;;;;;;;12.02;57.08;102607.47;6250718;28;20041;-70
2023/05/18 11:17:34;;;;;;;2.45;1.15;;;;;;;12.20;57.17;102606.94;6250738;28;20049;-71
2023/05/18 11:20:36;;;;;;;6.55;2.30;;;;;;;12.09;59.22;102606.41;6253046;28;20349;-70
2023/05/18 11:23:38;;;;;;;2.28;0.90;;;;;;;12.27;57.82;102600.56;6251335;28;20053;-70
2023/05/18 11:26:40;;;;;;;9.57;1.52;;;;;;;12.49;56.47;102594.63;6251154;28;20038;-70
2023/05/18 11:29:45;;;;;;;3.83;1.02;;;;;;;12.72;57.57;102594.75;6250747;28;20069;-71
2023/05/18 11:32:50;;;;;;;3.03;1.00;;;;;;;12.96;60.96;102590.44;6250838;28;20053;-70
2023/05/18 11:35:58;;;;;;;2.42;0.90;;;;;;;13.27;57.19;102585.00;6250475;28;20061;-71
2023/05/18 11:39:05;;;;;;;4.32;1.27;;;;;;;13.46;56.67;102590.50;6251007;28;20050;-70
2023/05/18 11:42:09;;;;;;;7.28;1.27;;;;;;;13.59;56.54;102589.13;6250437;28;20049;-70
2023/05/18 11:45:12;;;;;;;3.83;1.48;;;;;;;13.76;55.10;102582.34;6250464;28;20056;-71
2023/05/18 11:48:14;;;;;;;2.33;1.30;;;;;;;13.96;55.97;102578.03;6249912;28;20053;-71
2023/05/18 11:51:16;;;;;;;3.17;1.00;;;;;;;14.29;53.77;102585.59;6250563;28;20053;-71
2023/05/18 11:54:18;;;;;;;4.43;1.10;;;;;;;14.27;51.65;102582.16;6250226;28;20056;-71
2023/05/18 11:57:23;;;;;;;5.55;1.40;;;;;;;14.33;52.97;102578.41;6250112;28;20438;-71
2023/05/18 12:00:25;;;;;;;5.15;1.23;;;;;;;14.50;51.41;102580.41;6249808;28;20366;-71
2023/05/18 12:03:26;;;;;;;3.58;1.10;;;;;;;14.60;51.88;102576.44;6250225;28;20124;-71
2023/05/18 12:06:30;;;;;;;4.07;1.08;;;;;;;14.50;48.65;102569.81;6249778;28;20053;-71
2023/05/18 12:09:32;;;;;;;3.28;1.08;;;;;;;14.49;50.86;102568.97;6250225;28;20050;-71
2023/05/18 12:12:34;;;;;;;4.95;1.27;;;;;;;14.66;52.48;102568.25;6250009;28;20450;-70
2023/05/18 12:15:36;;;;;;;3.03;1.40;;;;;;;15.15;52.01;102566.19;6253773;28;20045;-70
2023/05/18 12:18:38;;;;;;;5.45;1.42;;;;;;;15.39;51.61;102569.53;6257126;28;20045;-71
2023/05/18 12:21:41;;;;;;;1.98;1.08;;;;;;;15.59;50.13;102566.88;6253996;28;20433;-71
2023/05/18 12:24:43;;;;;;;3.42;1.13;;;;;;;15.93;52.56;102563.53;6244661;28;20430;-70
2023/05/18 12:27:46;;;;;;;1.92;1.20;;;;;;;16.07;46.54;102554.06;6248161;28;20056;-71
2023/05/18 12:30:48;;;;;;;5.30;1.25;;;;;;;16.00;47.98;102545.56;6250950;28;20049;-71
2023/05/18 12:33:50;;;;;;;4.90;1.20;;;;;;;16.03;48.57;102550.72;6254804;28;20050;-71
2023/05/18 12:36:54;;;;;;;3.08;0.98;;;;;;;16.19;46.47;102551.69;6254632;28;20045;-71
2023/05/18 12:39:56;;;;;;;4.00;1.25;;;;;;;16.31;45.32;102544.09;6254347;28;20072;-71
2023/05/18 12:42:59;;;;;;;2.42;1.15;;;;;;;16.21;44.56;102538.34;6254908;28;20053;-71
2023/05/18 12:46:01;;;;;;;2.47;1.23;;;;;;;16.07;44.57;102540.81;6254738;28;20041;-71
2023/05/18 12:49:04;;;;;;;7.63;1.45;;;;;;;15.98;44.43;102542.09;6254137;28;20053;-71
2023/05/18 12:52:11;;;;;;;1.88;1.08;;;;;;;16.20;46.37;102534.00;6254671;28;20049;-70
2023/05/18 12:55:20;;;;;;;1.55;0.85;;;;;;;16.26;44.28;102531.06;6254037;28;20050;-71
2023/05/18 12:58:21;;;;;;;4.30;1.43;;;;;;;16.38;45.37;102533.09;6246783;28;20042;-71
2023/05/18 13:01:24;;;;;;;1.75;0.90;;;;;;;16.32;43.78;102522.78;6254238;28;20288;-71
2023/05/18 13:04:33;;;;;;;4.53;1.20;;;;;;;16.42;45.47;102532.00;6254362;28;20096;-70
2023/05/18 13:07:40;;;;;;;6.47;1.17;;;;;;;16.37;43.10;102525.22;6254035;28;20091;-71
2023/05/18 13:10:43;;;;;;;3.42;1.38;;;;;;;16.44;41.34;102523.97;6253963;28;20045;-71
2023/05/18 13:14:02;;;;;;;3.92;1.50;;;;;;;16.59;47.24;102523.22;6253856;28;20050;-70
2023/05/18 13:17:03;;;;;;;1.92;1.10;;;;;;;16.84;43.31;102529.97;6253868;28;20349;-71
2023/05/18 13:20:13;;;;;;;3.15;1.00;;;;;;;17.09;40.53;102522.44;6255284;28;20442;-70
2023/05/18 13:23:18;;;;;;;2.17;1.00;;;;;;;16.90;40.29;102521.69;6253861;28;20131;-71
2023/05/18 13:26:21;;;;;;;3.47;1.27;;;;;;;16.91;42.62;102515.44;6245320;28;20331;-70
2023/05/18 13:29:22;;;;;;;4.80;1.10;;;;;;;17.41;45.56;102523.41;6253423;28;20049;-70
2023/05/18 13:32:23;;;;;;;3.08;1.15;;;;;;;17.42;40.46;102513.63;6253452;28;20128;-71
2023/05/18 13:35:25;;;;;;;6.55;1.58;;;;;;;17.49;40.84;102515.88;6253542;28;20049;-71
2023/05/18 13:38:28;;;;;;;3.55;1.42;;;;;;;17.41;44.50;102512.75;6252952;28;20075;-71
2023/05/18 13:41:29;;;;;;;6.70;0.95;;;;;;;17.56;42.27;102512.88;6246345;28;20068;-71
2023/05/18 13:44:30;;;;;;;4.80;1.45;;;;;;;17.46;42.14;102505.41;6253060;28;20361;-71
2023/05/18 13:47:32;;;;;;;1.77;0.88;;;;;;;17.54;40.79;102498.81;6252797;28;20068;-71
2023/05/18 13:50:33;;;;;;;6.60;1.20;;;;;;;17.46;41.35;102501.88;6252937;28;20045;-70
2023/05/18 13:53:36;;;;;;;3.63;1.38;;;;;;;17.50;42.83;102496.31;6252809;28;20095;-70
2023/05/18 13:56:37;;;;;;;3.92;1.33;;;;;;;17.59;40.93;102486.13;6253062;28;20046;-71
2023/05/18 13:59:39;;;;;;;5.82;1.50;;;;;;;17.48;39.78;102489.34;6252467;28;20045;-71
2023/05/18 14:02:40;;;;;;;1.60;1.08;;;;;;;17.48;43.54;102487.56;6246019;28;20045;-71
2023/05/18 14:05:42;;;;;;;5.20;1.42;;;;;;;17.64;39.60;102481.41;6238397;28;20050;-70
2023/05/18 14:08:44;;;;;;;6.22;1.65;;;;;;;17.57;41.46;102470.25;6242492;28;20045;-70
2023/05/18 14:11:46;;;;;;;3.88;1.42;;;;;;;17.75;40.78;102466.59;6252401;28;20045;-71
2023/05/18 14:14:48;;;;;;;6.25;1.30;;;;;;;18.02;42.33;102465.97;6252637;28;20045;-70